Startpagina
METAR-TAF:

METAR-TAF

Vliegvelden :

Vlissingen, Nederland

breedte: 51-27N, lengte: 3-36E, hoogte: 10 m

Actueel weer

Dit bericht is 29 minuten geleden gemaakt, om 19:25 UTC
Wind 20 kt uit het oostnoordoosten
Temperatuur 5°C
Vochtigheid 81%
Druk 1015 hPa
Zicht 10 km of meer

METAR: EHFS 191925Z AUTO 07020KT 9999 NSC 05/02 Q1015 W///H///

Tijdstip: 20:54 (19:54 UTC)


TAF: ontbreekt

Waarnemingen en weersverwachtingen van meer dan 4000 vliegvelden (METAR en TAF).

De beschikbare stations zijn de gele en rode punten op de kaart.

Ga met uw muis naar het station om de naam te zien.

Klik dan om waarnemingen en weersverwachtingen te zien.

kaart wijzigen: klik op de groene knoppen met een zwart kruis om in te zoomen, op de groene knop met een streepje om uit te zoomen of op de groene pijlen voor aangrenzende kaarten.


METAR-TAF: